Historyczne dane pomiarowe

Dodano dane terminowe – wersja testowa.

Dane z okresu 1951-2019

Wersja bazy: 1.34 [2019-03-16, lista zmian], aktualizacja planowana na 2019-04-15

Dane meteo z obszaru Polski uzyskane na podstawie danych udostępnionych przez Instytut Meteorologii i Gospodarki Wodnej – Państwowy Instytut Badawczy.

 

Wybierz Datę:    

       

TemperaturaWilgotnośćZachmurzenieWiatrCiśnienieWidzialnośćZjawiska
 Data    tng td wb rh cc ccl cl cm ch dir g1 g2 mslp ppp      
1973-05-14 00:00:00 4.0--- -0.9 1.870wxwxwxwx14wx--- 839.1 0.0---wxw1
1973-05-14 01:00:00 4.2------wxwxwxwx15wx--- 838.7----wx
1973-05-14 02:00:00 3.8------wxwxwx13wx--- 838.6----wx
1973-05-14 03:00:00 3.4--- -1.7 1.270wxwxwxwx10wx--- 838.6----wx
1973-05-14 04:00:00 2.8------wxwxwxwx12wx--- 838.9----wx
1973-05-14 05:00:00 3.3------wxwxwxwx15wx--- 838.7----wx
1973-05-14 06:00:00 3.2--- -0.9 1.374wxwxwxwx8wx--- 839.2 0.0---wx
1973-05-14 07:00:00 3.0------wxwxwxwx16wx--- 839.2----wx
1973-05-14 08:00:00 3.6------wxwxwxwx16wx--- 839.4----wx
1973-05-14 09:00:00 4.4--- -0.7 2.169wxwxwxwxwx14wx--- 839.5----wx
1973-05-14 10:00:00 4.4------wxwxwxwxwx12wx--- 839.5----wx
1973-05-14 11:00:00 5.2------wxwxwxwxwx12wx--- 839.4----wx
1973-05-14 12:00:00 6.4--- 1.2 3.970wxwxwxwxwx10wx--- 839.5 0.0---wx
1973-05-14 13:00:00 6.8------wxwxwxwxwx8wx--- 839.5----wx
1973-05-14 14:00:00 6.8------wxwxwxwxwx9wx--- 839.2----wx
1973-05-14 15:00:00 6.4--- 0.0 3.463wxwxwxwxwx12wx--- 839.1----wx
1973-05-14 16:00:00 6.0------wxwxwx10wx--- 839.0----wx
1973-05-14 17:00:00 4.5------wxwxwxwxwx14wx--- 838.2----wxw1
1973-05-14 18:00:00 4.0--- 2.3 3.289wxwxwxwx14wx--- 837.8 0.4---wx
1973-05-14 19:00:00 4.5------wxwxwxwx13wx--- 837.9----wx
1973-05-14 20:00:00 4.1------wxwxwx10wx--- 838.2----wx
1973-05-14 21:00:00 4.5--- 0.0 2.471wxwxwxwx12wx--- 837.7----wxw1
1973-05-14 22:00:00 4.7------wxwxwxwx13wx--- 837.3----wx
1973-05-14 23:00:00 3.5------wxwxwxwx10wx--- 836.9----wx

 

Źródłem pochodzenia danych jest Instytut Meteorologii i Gospodarki Wodnej – Państwowy Instytut Badawczy. Dane Instytutu Meteorologii i Gospodarki Wodnej – Państwowego Instytutu Badawczego zostały przetworzone.

Dane źródłowe można odnaleźć na stronie https://dane.imgw.pl